Time;durP1;ratioP1;P1;durP2;ratioP2;P2;SDS_P1;SDS_P2;PMS_P1;PMS_P2;Temp;Humidity;BMP_temperature;BMP_pressure;BME280_temperature;BME280_humidity;BME280_pressure;Samples;Min_cycle;Max_cycle;Signal;HPM_P1;HPM_P2
2023/05/04 00:00:36;;;;;;;6.40;5.80;;;19.20;62.70;;;;;;5030847;28;20492;-77
2023/05/04 00:03:05;;;;;;;5.80;5.23;;;19.10;62.40;;;;;;5010210;28;20808;-76
2023/05/04 00:05:33;;;;;;;9.93;6.17;;;19.10;62.80;;;;;;5027819;28;20553;-76
2023/05/04 00:08:03;;;;;;;5.57;5.07;;;19.00;62.90;;;;;;5027849;28;20464;-77
2023/05/04 00:10:31;;;;;;;7.10;6.50;;;19.00;63.00;;;;;;5025129;28;20550;-76
2023/05/04 00:12:59;;;;;;;5.63;5.10;;;19.00;62.80;;;;;;5026435;28;20479;-75
2023/05/04 00:15:29;;;;;;;5.60;5.10;;;18.90;62.70;;;;;;5022463;28;20482;-76
2023/05/04 00:17:57;;;;;;;6.43;5.83;;;18.90;63.20;;;;;;5032972;28;21019;-74
2023/05/04 00:20:25;;;;;;;6.57;5.83;;;18.90;63.20;;;;;;5033094;28;20451;-76
2023/05/04 00:22:53;;;;;;;6.33;5.83;;;18.90;63.30;;;;;;5032319;28;20456;-76
2023/05/04 00:25:23;;;;;;;6.17;5.57;;;18.80;62.90;;;;;;5033606;28;20447;-77
2023/05/04 00:27:51;;;;;;;6.17;4.97;;;18.80;63.40;;;;;;5031973;28;20454;-76
2023/05/04 00:30:19;;;;;;;5.57;4.73;;;18.90;63.70;;;;;;5032980;28;20483;-75
2023/05/04 00:32:49;;;;;;;6.00;5.50;;;18.80;63.30;;;;;;5011664;28;20484;-75
2023/05/04 00:35:18;;;;;;;5.67;5.13;;;18.80;63.10;;;;;;5022270;28;20456;-76
2023/05/04 00:37:46;;;;;;;5.80;5.20;;;18.80;63.90;;;;;;5027177;28;20486;-75
2023/05/04 00:40:14;;;;;;;4.90;4.40;;;18.70;63.60;;;;;;5022047;28;20452;-75
2023/05/04 00:42:44;;;;;;;6.20;5.60;;;18.70;63.20;;;;;;5030600;28;20487;-74
2023/05/04 00:45:13;;;;;;;6.87;5.93;;;18.70;63.30;;;;;;5033968;28;20471;-75
2023/05/04 00:47:42;;;;;;;5.67;5.20;;;18.70;63.90;;;;;;5036761;28;20547;-75
2023/05/04 00:50:13;;;;;;;6.83;6.20;;;18.60;64.10;;;;;;5033039;28;20452;-79
2023/05/04 00:52:45;;;;;;;6.70;6.10;;;18.60;63.40;;;;;;5014259;28;20555;-73
2023/05/04 00:55:14;;;;;;;7.70;6.97;;;18.60;64.20;;;;;;5026492;28;20492;-74
2023/05/04 00:57:44;;;;;;;7.10;6.20;;;18.60;63.40;;;;;;5027126;28;20476;-74
2023/05/04 01:00:13;;;;;;;6.17;5.50;;;18.60;63.80;;;;;;5008762;28;20460;-75
2023/05/04 01:02:42;;;;;;;7.17;6.47;;;18.50;63.10;;;;;;5029700;28;20484;-75
2023/05/04 01:05:12;;;;;;;5.93;5.43;;;18.50;64.00;;;;;;5022828;28;20452;-74
2023/05/04 01:07:47;;;;;;;6.40;5.80;;;18.50;64.20;;;;;;5027310;28;20847;-75
2023/05/04 01:10:20;;;;;;;6.70;6.10;;;18.50;64.60;;;;;;5027403;28;20452;-75
2023/05/04 01:12:56;;;;;;;7.63;6.93;;;18.50;64.10;;;;;;5026867;28;20830;-75
2023/05/04 01:15:24;;;;;;;6.53;5.93;;;18.50;63.90;;;;;;5027614;28;20456;-73
2023/05/04 01:17:52;;;;;;;6.17;5.43;;;18.50;64.10;;;;;;5023811;28;20529;-75
2023/05/04 01:20:20;;;;;;;6.03;5.53;;;18.50;64.30;;;;;;5025611;28;20844;-75
2023/05/04 01:26:00;;;;;;;7.93;6.57;;;18.50;64.10;;;;;;4861343;23;21026;-82
2023/05/04 01:28:38;;;;;;;6.57;5.83;;;18.40;63.90;;;;;;4851988;29;20821;-83
2023/05/04 01:31:09;;;;;;;5.57;5.17;;;18.50;64.20;;;;;;4852733;29;20461;-82
2023/05/04 01:33:38;;;;;;;5.83;5.33;;;18.50;64.20;;;;;;4852714;29;20868;-82
2023/05/04 01:36:07;;;;;;;6.30;5.70;;;18.40;63.50;;;;;;4852295;29;20468;-83
2023/05/04 01:38:35;;;;;;;6.10;5.53;;;18.40;64.20;;;;;;4852653;29;20477;-82
2023/05/04 01:41:05;;;;;;;6.53;5.90;;;18.40;63.70;;;;;;4850336;29;20527;-83
2023/05/04 01:43:33;;;;;;;6.43;5.83;;;18.40;63.90;;;;;;4846586;29;20473;-84
2023/05/04 01:46:01;;;;;;;6.37;5.87;;;18.40;64.20;;;;;;4852951;29;20931;-83
2023/05/04 01:48:29;;;;;;;6.83;5.70;;;18.40;64.20;;;;;;4848974;29;20828;-83
2023/05/04 01:50:57;;;;;;;6.17;5.20;;;18.30;64.10;;;;;;4846110;29;20469;-83
2023/05/04 01:53:26;;;;;;;5.87;5.37;;;18.40;64.30;;;;;;4850986;29;20476;-82
2023/05/04 01:55:54;;;;;;;6.07;5.50;;;18.40;64.00;;;;;;4853822;29;20464;-84
2023/05/04 01:58:24;;;;;;;5.90;5.30;;;18.30;63.90;;;;;;4849748;29;20485;-83
2023/05/04 02:00:52;;;;;;;5.90;5.40;;;18.30;63.90;;;;;;4852373;29;20551;-82
2023/05/04 02:03:21;;;;;;;6.00;5.50;;;18.30;64.10;;;;;;4857129;29;20471;-83
2023/05/04 02:05:49;;;;;;;5.60;5.10;;;18.30;63.90;;;;;;4848585;29;20486;-83
2023/05/04 02:08:18;;;;;;;6.33;5.70;;;18.20;64.00;;;;;;4854179;29;20528;-82
2023/05/04 02:10:46;;;;;;;7.30;6.60;;;18.20;63.50;;;;;;4853067;29;20564;-83
2023/05/04 02:13:14;;;;;;;6.97;6.27;;;18.10;63.60;;;;;;4854761;29;20522;-83
2023/05/04 02:15:44;;;;;;;6.17;5.60;;;18.10;64.60;;;;;;4858872;29;20468;-83
2023/05/04 02:18:12;;;;;;;5.93;5.17;;;18.10;64.10;;;;;;4851309;29;20571;-82
2023/05/04 02:20:40;;;;;;;6.23;5.50;;;18.10;64.20;;;;;;4850149;29;20497;-84
2023/05/04 02:23:08;;;;;;;6.30;5.80;;;18.10;64.00;;;;;;4853764;29;20476;-82
2023/05/04 02:25:39;;;;;;;5.93;5.40;;;18.10;64.10;;;;;;4852839;29;20623;-82
2023/05/04 02:28:09;;;;;;;6.27;5.73;;;18.00;63.90;;;;;;4852307;29;20560;-83
2023/05/04 02:30:37;;;;;;;6.43;5.83;;;18.00;64.40;;;;;;4855820;29;20464;-83
2023/05/04 02:33:07;;;;;;;5.53;5.13;;;18.00;64.40;;;;;;4852259;29;20560;-82
2023/05/04 02:35:35;;;;;;;5.97;5.40;;;18.10;64.60;;;;;;4846521;29;20465;-84
2023/05/04 02:38:05;;;;;;;6.00;5.50;;;18.10;64.40;;;;;;4855775;29;20523;-84
2023/05/04 02:40:34;;;;;;;6.57;5.97;;;18.10;64.40;;;;;;4851281;29;20472;-84
2023/05/04 02:43:02;;;;;;;6.40;5.73;;;18.10;64.20;;;;;;4851288;29;20472;-82
2023/05/04 02:45:30;;;;;;;6.43;5.93;;;18.00;64.00;;;;;;4855742;29;20468;-82
2023/05/04 02:47:58;;;;;;;5.30;4.80;;;18.10;64.40;;;;;;4851183;29;20469;-82
2023/05/04 02:50:28;;;;;;;5.47;5.00;;;18.20;67.70;;;;;;4853790;29;20468;-85
2023/05/04 02:52:56;;;;;;;7.23;6.40;;;18.50;67.50;;;;;;4845995;29;20600;-83
2023/05/04 02:55:24;;;;;;;5.80;5.30;;;18.90;65.30;;;;;;4850161;29;20515;-83
2023/05/04 02:57:52;;;;;;;5.77;5.23;;;19.00;61.90;;;;;;4852716;29;20551;-82
2023/05/04 03:00:21;;;;;;;6.13;5.30;;;19.00;62.20;;;;;;4852734;29;20459;-85
2023/05/04 03:02:49;;;;;;;7.23;6.63;;;18.90;62.50;;;;;;4851438;29;20508;-82
2023/05/04 03:05:17;;;;;;;5.40;4.87;;;18.70;62.40;;;;;;4855132;29;20567;-82
2023/05/04 03:07:47;;;;;;;5.90;5.40;;;18.70;63.60;;;;;;4852339;29;20973;-83
2023/05/04 03:10:15;;;;;;;6.90;6.30;;;18.60;63.30;;;;;;4854610;29;20481;-82
2023/05/04 03:12:43;;;;;;;7.27;6.57;;;18.50;63.20;;;;;;4852972;29;20473;-83
2023/05/04 03:15:12;;;;;;;6.90;6.30;;;18.50;63.00;;;;;;4858604;29;20484;-83
2023/05/04 03:17:40;;;;;;;7.07;6.27;;;18.40;63.20;;;;;;4849118;29;20488;-82
2023/05/04 03:20:10;;;;;;;6.87;6.17;;;18.40;63.00;;;;;;4846443;29;20552;-83
2023/05/04 03:22:40;;;;;;;5.33;4.93;;;18.30;63.50;;;;;;4862327;29;20803;-82
2023/05/04 03:25:10;;;;;;;4.87;4.57;;;18.30;63.90;;;;;;4848123;29;20493;-83
2023/05/04 03:27:39;;;;;;;7.40;6.20;;;18.30;63.70;;;;;;4838208;29;20480;-84
2023/05/04 03:30:09;;;;;;;6.33;5.73;;;18.30;63.30;;;;;;4854470;29;20839;-82
2023/05/04 03:32:38;;;;;;;6.30;5.70;;;18.30;63.90;;;;;;4846013;29;20480;-82
2023/05/04 03:35:08;;;;;;;5.37;4.97;;;18.30;64.20;;;;;;4859941;29;20474;-82
2023/05/04 03:37:36;;;;;;;5.30;4.90;;;18.30;63.60;;;;;;4859520;29;20463;-83
2023/05/04 03:40:05;;;;;;;6.70;5.77;;;18.30;63.70;;;;;;4854067;29;20992;-83
2023/05/04 03:42:36;;;;;;;7.20;6.50;;;18.30;63.40;;;;;;4854793;29;20465;-82
2023/05/04 03:45:06;;;;;;;6.23;5.63;;;18.20;63.40;;;;;;4859878;29;20486;-83
2023/05/04 03:47:34;;;;;;;5.87;5.37;;;18.20;63.00;;;;;;4856990;29;20483;-82
2023/05/04 03:50:02;;;;;;;6.60;6.00;;;18.20;63.30;;;;;;4857897;29;20472;-82
2023/05/04 03:52:31;;;;;;;7.07;6.37;;;18.10;62.70;;;;;;4858395;29;20915;-82
2023/05/04 03:54:59;;;;;;;6.23;5.63;;;18.10;63.50;;;;;;4856763;29;20464;-83
2023/05/04 03:57:27;;;;;;;8.37;7.53;;;18.00;63.80;;;;;;4855786;29;20520;-83
2023/05/04 03:59:58;;;;;;;15.63;10.40;;;18.00;63.60;;;;;;4852697;29;20489;-83
2023/05/04 04:02:27;;;;;;;9.27;7.90;;;18.00;63.10;;;;;;4852049;29;20479;-83
2023/05/04 04:04:57;;;;;;;8.03;7.10;;;17.90;63.50;;;;;;4857937;29;20551;-82
2023/05/04 04:07:25;;;;;;;7.07;6.30;;;17.80;63.60;;;;;;4858662;29;20483;-83
2023/05/04 04:09:53;;;;;;;6.90;6.30;;;17.80;63.40;;;;;;4854713;29;20464;-82
2023/05/04 04:12:22;;;;;;;8.00;6.70;;;17.70;64.20;;;;;;4866216;29;20499;-82
2023/05/04 04:14:51;;;;;;;9.23;6.90;;;17.70;64.20;;;;;;4859086;29;20491;-83
2023/05/04 04:17:21;;;;;;;7.20;6.43;;;17.70;64.40;;;;;;4850273;29;20575;-82
2023/05/04 04:19:49;;;;;;;6.90;6.37;;;17.70;64.00;;;;;;4857444;29;20484;-83
2023/05/04 04:22:17;;;;;;;7.30;6.73;;;17.70;64.10;;;;;;4848452;29;20473;-83
2023/05/04 04:24:45;;;;;;;7.70;6.50;;;17.70;64.30;;;;;;4851855;29;20532;-83
2023/05/04 04:27:13;;;;;;;7.07;6.17;;;17.80;64.00;;;;;;4859166;29;20532;-82
2023/05/04 04:29:41;;;;;;;6.60;6.00;;;17.70;64.10;;;;;;4844543;29;20465;-83
2023/05/04 04:32:10;;;;;;;7.50;6.07;;;17.70;64.60;;;;;;4851091;29;20476;-84
2023/05/04 04:34:39;;;;;;;8.50;6.17;;;17.70;63.80;;;;;;4851381;29;21078;-82
2023/05/04 04:37:07;;;;;;;6.27;5.67;;;17.70;63.90;;;;;;4849743;29;20462;-82
2023/05/04 04:39:35;;;;;;;6.00;5.50;;;17.70;64.30;;;;;;4849523;29;20491;-83
2023/05/04 04:42:04;;;;;;;7.33;6.67;;;17.80;65.50;;;;;;4846255;29;20468;-83
2023/05/04 04:44:32;;;;;;;6.87;6.33;;;17.90;64.20;;;;;;4851003;29;20510;-83
2023/05/04 04:47:00;;;;;;;7.23;6.17;;;17.90;64.70;;;;;;4852577;29;20552;-83
2023/05/04 04:49:29;;;;;;;6.87;6.27;;;18.00;64.40;;;;;;4851582;29;20560;-83
2023/05/04 04:51:58;;;;;;;6.10;5.70;;;18.00;63.50;;;;;;4850720;29;20474;-83
2023/05/04 04:54:27;;;;;;;5.90;5.40;;;18.10;63.90;;;;;;4850134;29;20528;-82
2023/05/04 04:56:55;;;;;;;7.30;6.60;;;18.20;64.10;;;;;;4857887;29;20468;-82
2023/05/04 04:59:23;;;;;;;6.90;6.30;;;18.20;64.00;;;;;;4855476;29;20559;-84
2023/05/04 05:01:52;;;;;;;7.93;6.07;;;18.30;64.30;;;;;;4852177;29;20465;-81
2023/05/04 05:04:21;;;;;;;6.47;5.27;;;18.30;64.50;;;;;;4843167;29;20442;-83
2023/05/04 05:06:50;;;;;;;10.47;7.00;;;18.40;65.00;;;;;;4866874;29;20459;-83
2023/05/04 05:09:19;;;;;;;10.23;6.60;;;18.40;63.40;;;;;;4847775;29;20498;-83
2023/05/04 05:11:48;;;;;;;7.80;7.00;;;18.40;64.00;;;;;;4854148;29;20473;-81
2023/05/04 05:14:16;;;;;;;7.77;6.97;;;18.40;63.60;;;;;;4848938;29;20519;-83
2023/05/04 05:16:44;;;;;;;5.40;4.90;;;18.30;64.10;;;;;;4850976;29;20575;-83
2023/05/04 05:19:13;;;;;;;5.47;4.97;;;18.20;65.20;;;;;;4850919;29;21381;-82
2023/05/04 05:21:41;;;;;;;7.80;7.10;;;18.30;66.80;;;;;;4853512;29;20500;-83
2023/05/04 05:24:09;;;;;;;5.80;5.30;;;18.50;65.80;;;;;;4850315;29;20512;-83
2023/05/04 05:26:38;;;;;;;6.60;5.93;;;18.70;66.80;;;;;;4853405;29;20500;-83
2023/05/04 05:29:07;;;;;;;6.27;4.87;;;18.80;64.10;;;;;;4853205;29;20456;-82
2023/05/04 05:31:35;;;;;;;7.50;6.47;;;18.90;65.00;;;;;;4848618;29;20791;-83
2023/05/04 05:34:03;;;;;;;9.13;7.70;;;18.90;64.00;;;;;;4857923;29;20482;-83
2023/05/04 05:36:32;;;;;;;6.20;5.70;;;18.90;63.70;;;;;;4851452;29;20472;-83
2023/05/04 05:39:00;;;;;;;7.33;6.67;;;19.00;66.00;;;;;;4852705;29;20563;-83
2023/05/04 05:41:28;;;;;;;7.33;5.77;;;19.10;63.90;;;;;;4851780;29;20483;-82
2023/05/04 05:43:58;;;;;;;8.30;6.27;;;19.10;63.40;;;;;;4849626;29;20962;-82
2023/05/04 05:46:26;;;;;;;7.50;6.80;;;19.10;64.00;;;;;;4852427;29;20464;-83
2023/05/04 05:48:55;;;;;;;5.70;5.07;;;19.10;63.50;;;;;;4852562;29;20461;-82
2023/05/04 05:51:23;;;;;;;6.67;6.03;;;19.00;64.60;;;;;;4851827;29;20503;-83
2023/05/04 05:53:51;;;;;;;9.20;8.13;;;19.00;65.50;;;;;;4848747;29;20483;-82
2023/05/04 05:56:20;;;;;;;7.03;5.77;;;19.00;63.00;;;;;;4857045;29;20460;-82
2023/05/04 05:58:51;;;;;;;5.27;4.33;;;19.00;64.20;;;;;;4851032;29;20563;-83
2023/05/04 06:01:21;;;;;;;8.13;7.37;;;19.00;66.20;;;;;;4850190;29;20485;-83
2023/05/04 06:03:49;;;;;;;8.03;7.30;;;19.00;63.50;;;;;;4857539;29;20472;-83
2023/05/04 06:06:18;;;;;;;8.73;7.77;;;19.00;63.30;;;;;;4850238;29;20488;-82
2023/05/04 06:08:46;;;;;;;8.13;7.23;;;19.00;64.10;;;;;;4853317;29;20468;-83
2023/05/04 06:11:14;;;;;;;9.57;6.33;;;19.10;66.80;;;;;;4850875;29;20471;-82
2023/05/04 06:13:42;;;;;;;5.80;5.30;;;19.20;66.20;;;;;;4849526;29;20889;-82
2023/05/04 06:16:10;;;;;;;9.70;8.73;;;19.30;64.70;;;;;;4849598;29;20511;-83
2023/05/04 06:18:40;;;;;;;8.17;7.37;;;19.40;63.10;;;;;;4853968;29;20528;-83
2023/05/04 06:21:08;;;;;;;9.80;8.80;;;19.40;63.80;;;;;;4835181;29;20515;-82
2023/05/04 06:23:37;;;;;;;9.77;8.87;;;19.30;63.90;;;;;;4846317;29;21060;-83
2023/05/04 06:26:06;;;;;;;4.50;4.10;;;19.30;64.60;;;;;;4852462;29;20500;-81
2023/05/04 06:28:35;;;;;;;6.80;6.10;;;19.20;65.90;;;;;;4848516;29;20472;-84
2023/05/04 06:31:03;;;;;;;5.73;4.80;;;19.30;64.90;;;;;;4846057;29;20482;-84
2023/05/04 06:33:31;;;;;;;9.77;8.83;;;19.40;66.80;;;;;;4850534;29;20467;-82
2023/05/04 06:36:01;;;;;;;7.83;6.93;;;19.50;63.70;;;;;;4848029;29;20465;-82
2023/05/04 06:38:30;;;;;;;9.37;8.47;;;19.50;64.10;;;;;;4853883;29;20520;-81
2023/05/04 06:40:58;;;;;;;8.77;7.97;;;19.40;64.20;;;;;;4854488;29;20480;-82
2023/05/04 06:43:26;;;;;;;9.13;8.10;;;19.50;64.50;;;;;;4850059;29;20555;-82
2023/05/04 06:45:55;;;;;;;5.10;4.70;;;19.60;63.60;;;;;;4848197;29;20562;-83
2023/05/04 06:48:23;;;;;;;9.30;8.40;;;19.60;64.90;;;;;;4856639;29;20460;-85
2023/05/04 06:50:52;;;;;;;9.10;8.20;;;19.80;64.20;;;;;;4856846;29;20443;-82
2023/05/04 06:53:21;;;;;;;9.10;8.20;;;19.90;63.60;;;;;;4859102;29;20479;-82
2023/05/04 06:55:49;;;;;;;8.90;8.07;;;20.00;62.80;;;;;;4864946;29;20443;-83
2023/05/04 06:58:18;;;;;;;7.80;6.87;;;20.00;63.50;;;;;;4876974;29;20523;-84
2023/05/04 07:00:47;;;;;;;7.40;6.53;;;20.10;64.20;;;;;;4863651;29;20583;-82
2023/05/04 07:03:15;;;;;;;8.83;7.93;;;20.20;63.30;;;;;;4865676;29;20841;-83
2023/05/04 07:05:44;;;;;;;8.77;7.97;;;20.20;63.40;;;;;;4870279;29;20455;-83
2023/05/04 07:08:12;;;;;;;5.83;5.20;;;20.20;63.30;;;;;;4877994;29;20515;-83
2023/05/04 07:10:42;;;;;;;10.70;9.70;;;20.20;63.80;;;;;;4879975;29;20471;-82
2023/05/04 07:13:10;;;;;;;7.43;6.23;;;20.30;62.20;;;;;;4875003;29;20495;-84
2023/05/04 07:15:39;;;;;;;7.93;7.20;;;20.40;63.60;;;;;;4861946;29;20574;-84
2023/05/04 07:18:07;;;;;;;6.37;5.77;;;20.40;63.80;;;;;;4861872;29;20448;-82
2023/05/04 07:20:35;;;;;;;5.77;5.27;;;20.50;62.90;;;;;;4863214;29;20460;-82
2023/05/04 07:23:04;;;;;;;9.87;7.73;;;20.50;63.40;;;;;;4861394;29;20952;-82
2023/05/04 07:25:32;;;;;;;7.43;6.70;;;20.60;63.40;;;;;;4865681;29;20479;-82
2023/05/04 07:28:02;;;;;;;6.67;6.07;;;20.60;63.20;;;;;;4862973;29;20463;-83
2023/05/04 07:30:31;;;;;;;6.10;5.60;;;20.70;62.30;;;;;;4862593;29;20559;-83
2023/05/04 07:32:59;;;;;;;5.47;4.97;;;20.60;64.50;;;;;;4862649;29;20460;-82
2023/05/04 07:35:27;;;;;;;4.70;4.27;;;20.60;62.70;;;;;;4864409;29;20554;-83
2023/05/04 07:37:55;;;;;;;10.17;8.60;;;20.70;62.90;;;;;;4880466;29;20471;-82
2023/05/04 07:40:24;;;;;;;8.13;7.33;;;20.80;62.40;;;;;;4866116;29;20460;-82
2023/05/04 07:42:52;;;;;;;5.40;4.90;;;20.80;63.40;;;;;;4862200;29;20472;-83
2023/05/04 07:45:22;;;;;;;7.97;7.27;;;20.80;63.00;;;;;;4864013;29;20456;-82
2023/05/04 07:47:50;;;;;;;5.60;5.20;;;20.90;63.70;;;;;;4870318;29;20491;-83
2023/05/04 07:50:20;;;;;;;7.97;7.33;;;21.00;62.30;;;;;;4853071;29;20469;-82
2023/05/04 07:52:48;;;;;;;6.77;6.27;;;21.00;62.10;;;;;;4860434;29;20885;-83
2023/05/04 07:55:17;;;;;;;6.00;5.47;;;21.00;63.00;;;;;;4862223;29;20549;-84
2023/05/04 07:57:45;;;;;;;5.93;5.50;;;21.10;63.80;;;;;;4875111;29;20452;-84
2023/05/04 08:00:15;;;;;;;9.10;8.23;;;21.20;63.50;;;;;;4854904;29;20542;-82
2023/05/04 08:02:45;;;;;;;8.83;8.10;;;21.30;62.10;;;;;;4856549;29;20980;-82
2023/05/04 08:05:13;;;;;;;10.53;9.53;;;21.30;62.30;;;;;;4843092;29;20453;-84
2023/05/04 08:07:42;;;;;;;8.80;7.90;;;21.40;61.60;;;;;;4861220;29;20524;-83
2023/05/04 08:10:10;;;;;;;8.37;7.70;;;21.40;62.10;;;;;;4861835;29;20454;-82
2023/05/04 08:12:40;;;;;;;8.20;7.40;;;21.50;61.60;;;;;;4842616;29;20596;-82
2023/05/04 08:15:09;;;;;;;9.07;8.27;;;21.60;61.60;;;;;;4842812;29;20453;-83
2023/05/04 08:17:39;;;;;;;16.20;11.00;;;21.60;61.60;;;;;;4861360;29;20441;-84
2023/05/04 08:20:10;;;;;;;6.17;5.67;;;21.60;61.00;;;;;;4861136;29;21018;-83
2023/05/04 08:22:38;;;;;;;9.10;8.20;;;21.50;61.20;;;;;;4861902;29;20511;-82
2023/05/04 08:25:08;;;;;;;5.60;5.10;;;21.50;62.00;;;;;;4860484;29;20577;-83
2023/05/04 08:27:36;;;;;;;4.87;4.47;;;21.50;62.30;;;;;;4842323;29;20453;-82
2023/05/04 08:30:05;;;;;;;10.00;9.10;;;21.60;62.70;;;;;;4842294;29;20530;-82
2023/05/04 08:32:34;;;;;;;7.90;7.20;;;21.70;61.10;;;;;;4843616;29;20474;-83
2023/05/04 08:35:02;;;;;;;5.90;5.40;;;21.80;61.90;;;;;;4860888;29;20480;-82
2023/05/04 08:37:32;;;;;;;7.00;6.50;;;21.80;61.50;;;;;;4850661;29;20467;-83
2023/05/04 08:40:01;;;;;;;6.43;5.93;;;21.90;61.50;;;;;;4850996;29;20479;-83
2023/05/04 08:42:30;;;;;;;4.70;4.40;;;22.00;61.50;;;;;;4855056;29;20492;-84
2023/05/04 08:44:59;;;;;;;7.60;6.77;;;22.10;61.50;;;;;;4859527;29;20491;-83
2023/05/04 08:47:29;;;;;;;5.47;5.07;;;22.20;61.40;;;;;;4878805;29;20463;-83
2023/05/04 08:49:57;;;;;;;5.33;4.97;;;22.20;60.80;;;;;;4877885;29;20470;-83
2023/05/04 08:52:26;;;;;;;4.57;4.27;;;22.30;61.00;;;;;;4859958;29;20459;-83
2023/05/04 08:54:56;;;;;;;5.20;4.70;;;22.30;60.00;;;;;;4860500;29;20486;-83
2023/05/04 08:57:26;;;;;;;4.93;4.53;;;22.30;59.80;;;;;;4853357;29;20468;-82
2023/05/04 08:59:55;;;;;;;5.03;4.63;;;22.30;60.40;;;;;;4860811;29;20832;-83
2023/05/04 09:02:24;;;;;;;8.53;7.83;;;22.40;60.80;;;;;;4861126;29;20547;-82
2023/05/04 09:04:54;;;;;;;4.37;4.07;;;22.40;60.20;;;;;;4860881;29;20471;-83
2023/05/04 09:07:22;;;;;;;6.20;5.70;;;22.40;61.00;;;;;;4861016;29;20475;-82
2023/05/04 09:09:52;;;;;;;4.97;4.67;;;22.50;60.70;;;;;;4861120;29;20528;-83
2023/05/04 09:12:21;;;;;;;4.43;4.13;;;22.50;60.70;;;;;;4860474;29;20470;-83
2023/05/04 09:14:50;;;;;;;6.80;6.30;;;22.50;59.20;;;;;;4860680;29;20431;-83
2023/05/04 09:17:24;;;;;;;4.87;4.57;;;22.60;58.50;;;;;;4868579;29;20452;-83
2023/05/04 09:19:59;;;;;;;6.03;5.50;;;22.70;59.90;;;;;;4860003;29;20475;-83
2023/05/04 09:22:28;;;;;;;7.37;6.80;;;22.70;59.20;;;;;;4859775;29;21055;-83
2023/05/04 09:25:06;;;;;;;4.73;4.43;;;22.70;58.20;;;;;;4858987;29;20507;-83
2023/05/04 09:27:36;;;;;;;6.50;6.00;;;22.70;59.00;;;;;;4877486;29;20451;-82
2023/05/04 09:30:05;;;;;;;5.83;5.43;;;22.80;58.90;;;;;;4878876;29;20455;-83
2023/05/04 09:32:37;;;;;;;6.97;6.47;;;22.80;59.20;;;;;;4877979;29;20536;-83
2023/05/04 09:35:07;;;;;;;4.10;3.80;;;22.90;57.90;;;;;;4860492;29;20440;-83
2023/05/04 09:37:45;;;;;;;5.67;5.27;;;22.90;59.40;;;;;;4869499;29;20499;-83
2023/05/04 09:40:14;;;;;;;6.23;5.63;;;23.00;58.00;;;;;;4856918;29;20893;-83
2023/05/04 09:42:44;;;;;;;5.40;5.00;;;23.00;57.90;;;;;;4859816;29;20484;-84
2023/05/04 09:45:12;;;;;;;5.53;5.13;;;23.00;58.20;;;;;;4842371;29;20519;-81
2023/05/04 09:47:41;;;;;;;5.77;5.33;;;23.10;57.80;;;;;;4857290;29;20468;-82
2023/05/04 09:50:17;;;;;;;4.57;4.27;;;23.10;57.40;;;;;;4860443;29;20459;-81
2023/05/04 09:52:49;;;;;;;4.23;4.00;;;23.10;58.50;;;;;;4854348;29;20460;-83
2023/05/04 09:55:19;;;;;;;13.70;5.60;;;23.10;57.90;;;;;;4855897;29;20465;-82
2023/05/04 09:57:50;;;;;;;6.17;5.67;;;23.10;56.70;;;;;;4858240;29;20533;-80
2023/05/04 10:00:19;;;;;;;4.43;4.13;;;23.10;57.40;;;;;;4860161;29;20521;-82
2023/05/04 10:02:48;;;;;;;4.67;4.30;;;23.10;57.50;;;;;;4856354;29;20838;-84
2023/05/04 10:05:20;;;;;;;4.40;4.10;;;23.10;56.90;;;;;;4846600;29;20487;-84
2023/05/04 10:07:49;;;;;;;4.83;4.53;;;23.10;57.00;;;;;;4857274;29;20470;-78
2023/05/04 10:10:17;;;;;;;4.67;4.37;;;23.10;57.30;;;;;;4854664;29;20812;-79
2023/05/04 10:12:46;;;;;;;4.30;4.00;;;23.20;57.50;;;;;;4857115;29;20470;-78
2023/05/04 10:15:16;;;;;;;6.23;5.73;;;23.20;58.00;;;;;;4857335;29;20565;-80
2023/05/04 10:17:56;;;;;;;4.33;4.03;;;23.30;57.30;;;;;;4864318;29;20957;-79
2023/05/04 10:20:46;;;;;;;4.90;4.60;;;23.30;58.20;;;;;;4849013;29;20466;-79
2023/05/04 10:23:32;;;;;;;4.00;3.70;;;23.30;58.20;;;;;;4858764;29;21170;-79
2023/05/04 10:26:38;;;;;;;6.20;5.73;;;23.40;57.20;;;;;;4855455;29;20483;-79
2023/05/04 10:29:19;;;;;;;7.47;5.20;;;23.50;56.50;;;;;;4846945;29;20472;-78
2023/05/04 10:31:52;;;;;;;5.30;4.90;;;23.50;57.10;;;;;;4846571;29;20451;-79
2023/05/04 10:34:25;;;;;;;5.33;4.83;;;23.50;56.00;;;;;;4859361;29;20496;-78
2023/05/04 10:36:53;;;;;;;5.80;5.40;;;23.50;57.10;;;;;;4858785;29;20456;-80
2023/05/04 10:39:23;;;;;;;5.47;5.07;;;23.60;57.40;;;;;;4863560;29;20461;-80
2023/05/04 10:42:02;;;;;;;4.33;4.00;;;23.60;55.70;;;;;;4851255;29;20507;-80
2023/05/04 10:44:31;;;;;;;5.10;4.80;;;23.60;57.90;;;;;;4847080;29;20541;-79
2023/05/04 10:47:04;;;;;;;6.20;5.70;;;23.60;57.00;;;;;;4860560;29;20491;-79
2023/05/04 10:49:33;;;;;;;6.80;6.20;;;23.70;56.20;;;;;;4843713;29;20528;-82
2023/05/04 10:52:09;;;;;;;6.60;4.70;;;23.60;54.70;;;;;;4856130;29;20452;-80
2023/05/04 10:54:40;;;;;;;5.67;5.17;;;23.50;56.20;;;;;;4856827;29;20479;-76
2023/05/04 10:57:10;;;;;;;6.37;4.17;;;23.60;56.30;;;;;;4860221;29;20472;-84
2023/05/04 10:59:39;;;;;;;4.97;4.50;;;23.60;56.90;;;;;;4845856;29;20497;-79
2023/05/04 11:02:09;;;;;;;4.67;4.30;;;23.70;56.50;;;;;;4853696;29;20544;-79
2023/05/04 11:04:38;;;;;;;4.73;4.37;;;23.80;57.30;;;;;;4844804;29;20484;-80
2023/05/04 11:07:07;;;;;;;5.20;4.80;;;23.90;56.80;;;;;;4859869;29;20445;-79
2023/05/04 11:09:37;;;;;;;4.87;4.57;;;23.90;55.70;;;;;;4852371;29;20473;-79
2023/05/04 11:12:09;;;;;;;5.10;4.63;;;24.00;56.70;;;;;;4848822;29;20535;-79
2023/05/04 11:14:41;;;;;;;5.83;5.43;;;24.00;56.40;;;;;;4852047;29;20459;-78
2023/05/04 11:17:11;;;;;;;5.93;5.47;;;24.10;54.30;;;;;;4852099;29;20530;-79
2023/05/04 11:19:55;;;;;;;4.30;4.00;;;24.10;53.50;;;;;;4853301;29;20986;-81
2023/05/04 11:22:23;;;;;;;4.23;3.93;;;24.10;55.00;;;;;;4853643;29;20466;-81
2023/05/04 11:24:51;;;;;;;5.73;5.27;;;24.10;56.30;;;;;;4857623;29;20501;-81
2023/05/04 11:27:29;;;;;;;6.23;5.77;;;24.20;53.60;;;;;;4851317;29;20518;-80
2023/05/04 11:29:59;;;;;;;5.30;4.80;;;24.20;52.00;;;;;;4855540;29;20461;-84
2023/05/04 11:32:41;;;;;;;4.20;3.90;;;24.30;55.80;;;;;;4858365;29;20939;-83
2023/05/04 11:35:15;;;;;;;5.53;5.13;;;24.40;54.30;;;;;;4852005;29;20478;-83
2023/05/04 11:37:45;;;;;;;4.43;4.13;;;24.40;54.10;;;;;;4864393;29;20502;-83
2023/05/04 11:40:15;;;;;;;5.30;4.80;;;24.50;55.60;;;;;;4859345;29;20471;-83
2023/05/04 11:42:43;;;;;;;5.60;5.20;;;24.60;54.40;;;;;;4858646;29;20533;-86
2023/05/04 11:45:16;;;;;;;5.50;5.10;;;24.60;53.60;;;;;;4856313;29;20486;-82
2023/05/04 11:47:47;;;;;;;5.30;4.90;;;24.70;53.30;;;;;;4876054;29;20446;-83
2023/05/04 11:50:17;;;;;;;4.60;4.30;;;24.90;52.80;;;;;;4863228;29;20822;-84
2023/05/04 11:52:46;;;;;;;5.00;4.50;;;25.00;52.00;;;;;;4854130;29;20883;-84
2023/05/04 11:55:26;;;;;;;4.83;4.43;;;25.20;51.10;;;;;;4843992;29;20495;-82
2023/05/04 11:57:58;;;;;;;4.83;4.53;;;25.30;50.40;;;;;;4858221;29;20544;-84
2023/05/04 12:00:38;;;;;;;5.03;4.67;;;25.40;50.80;;;;;;4858596;29;20838;-82
2023/05/04 12:03:11;;;;;;;3.83;3.53;;;25.50;53.00;;;;;;4861573;29;20454;-84
2023/05/04 12:05:46;;;;;;;4.90;4.60;;;25.60;52.70;;;;;;4856415;29;20578;-83
2023/05/04 12:08:26;;;;;;;4.20;3.57;;;25.70;52.40;;;;;;4860497;29;21034;-83
2023/05/04 12:11:09;;;;;;;3.73;3.47;;;25.70;52.70;;;;;;4861032;29;20579;-84
2023/05/04 12:13:37;;;;;;;3.87;3.43;;;25.80;53.10;;;;;;4861275;29;20492;-83
2023/05/04 12:16:13;;;;;;;3.50;3.17;;;25.80;53.20;;;;;;4851997;29;20944;-82
2023/05/04 12:18:44;;;;;;;4.30;4.00;;;25.90;53.60;;;;;;4861652;29;20504;-83
2023/05/04 12:21:14;;;;;;;3.97;3.67;;;25.90;53.50;;;;;;4860062;29;20461;-85
2023/05/04 12:23:43;;;;;;;3.50;3.20;;;25.90;53.80;;;;;;4857563;29;20560;-84
2023/05/04 12:26:12;;;;;;;3.70;3.40;;;25.90;53.20;;;;;;4852545;29;20534;-80
2023/05/04 12:28:41;;;;;;;4.17;3.80;;;25.90;53.40;;;;;;4852813;29;20547;-79
2023/05/04 12:31:09;;;;;;;3.67;3.33;;;25.90;52.50;;;;;;4865158;29;20884;-80
2023/05/04 12:33:37;;;;;;;4.80;4.50;;;25.90;52.50;;;;;;4851905;29;20473;-79
2023/05/04 12:36:08;;;;;;;6.73;6.00;;;25.90;53.00;;;;;;4856206;29;20475;-80
2023/05/04 12:38:36;;;;;;;4.23;4.00;;;25.90;49.40;;;;;;4858426;29;21026;-81
2023/05/04 12:41:09;;;;;;;4.57;4.17;;;25.90;52.70;;;;;;4856061;29;20475;-82
2023/05/04 12:43:37;;;;;;;5.07;4.50;;;26.00;53.10;;;;;;4859380;29;20485;-82
2023/05/04 12:46:06;;;;;;;5.70;5.10;;;26.00;53.30;;;;;;4860901;29;20486;-78
2023/05/04 12:48:34;;;;;;;4.60;4.20;;;26.00;52.20;;;;;;4851938;29;20449;-78
2023/05/04 12:51:03;;;;;;;4.57;4.17;;;26.00;53.20;;;;;;4848429;29;20851;-78
2023/05/04 12:53:33;;;;;;;4.33;4.03;;;26.00;52.80;;;;;;4857392;29;20542;-79
2023/05/04 12:56:02;;;;;;;4.13;3.93;;;26.00;52.90;;;;;;4848123;29;20461;-78
2023/05/04 12:58:30;;;;;;;3.70;3.50;;;26.10;52.60;;;;;;4850516;29;20546;-79
2023/05/04 13:00:59;;;;;;;4.63;4.33;;;26.10;52.60;;;;;;4851048;29;21025;-80